Time;durP1;ratioP1;P1;durP2;ratioP2;P2;SDS_P1;SDS_P2;PMS_P1;PMS_P2;Temp;Humidity;BMP_temperature;BMP_pressure;BME280_temperature;BME280_humidity;BME280_pressure;Samples;Min_cycle;Max_cycle;Signal;HPM_P1;HPM_P2
2022/11/25 00:01:14;;;;;;;4.80;2.25;;;1.90;72.40;;;;;;5108547;27;46921;-66
2022/11/25 00:03:41;;;;;;;6.05;2.50;;;1.90;72.20;;;;;;5109159;27;46433;-67
2022/11/25 00:06:11;;;;;;;4.07;2.50;;;1.90;72.20;;;;;;5109711;27;46510;-65
2022/11/25 00:08:38;;;;;;;5.13;2.55;;;1.90;72.10;;;;;;5128838;27;46470;-66
2022/11/25 00:11:05;;;;;;;4.72;2.65;;;1.80;73.30;;;;;;5110812;27;46447;-68
2022/11/25 00:13:31;;;;;;;6.15;2.40;;;1.80;72.10;;;;;;5106058;27;46736;-66
2022/11/25 00:16:02;;;;;;;5.05;2.58;;;1.80;72.00;;;;;;5107686;27;46452;-67
2022/11/25 00:18:28;;;;;;;6.05;2.70;;;1.70;72.10;;;;;;5106984;27;46483;-67
2022/11/25 00:20:54;;;;;;;4.32;2.63;;;1.70;72.00;;;;;;5110612;27;46527;-69
2022/11/25 00:23:19;;;;;;;4.83;2.30;;;1.70;72.10;;;;;;5106155;27;46437;-66
2022/11/25 00:25:45;;;;;;;6.03;3.13;;;1.60;72.10;;;;;;5109739;27;46565;-68
2022/11/25 00:28:11;;;;;;;6.47;3.17;;;1.60;72.20;;;;;;5113353;27;46501;-67
2022/11/25 00:30:36;;;;;;;4.90;2.60;;;1.60;72.10;;;;;;5110840;27;46329;-67
2022/11/25 00:33:02;;;;;;;5.90;2.53;;;1.60;71.90;;;;;;5106916;27;46435;-69
2022/11/25 00:35:28;;;;;;;8.03;2.57;;;1.50;71.80;;;;;;5106779;27;46591;-67
2022/11/25 00:37:53;;;;;;;7.93;3.27;;;1.50;71.70;;;;;;5106677;27;46551;-66
2022/11/25 00:40:19;;;;;;;4.43;2.67;;;1.50;71.70;;;;;;5105889;27;48963;-67
2022/11/25 00:45:28;;;;;;;6.65;2.80;;;1.50;71.90;;;;;;5106192;27;46549;-69
2022/11/25 00:47:54;;;;;;;5.67;2.70;;;1.40;71.90;;;;;;5108094;27;46399;-66
2022/11/25 00:50:19;;;;;;;6.13;3.20;;;1.50;72.00;;;;;;5108005;27;47072;-66
2022/11/25 00:52:45;;;;;;;8.10;2.40;;;1.40;71.80;;;;;;5107916;27;46436;-67
2022/11/25 00:55:11;;;;;;;7.13;2.30;;;1.40;71.70;;;;;;5105547;27;46045;-66
2022/11/25 00:57:36;;;;;;;5.03;2.63;;;1.40;71.80;;;;;;5109066;27;46371;-67
2022/11/25 01:00:03;;;;;;;4.70;2.90;;;1.40;71.70;;;;;;5109617;27;46380;-66
2022/11/25 01:02:28;;;;;;;6.82;3.13;;;1.40;71.70;;;;;;5108920;27;46448;-69
2022/11/25 01:04:54;;;;;;;5.57;3.33;;;1.40;71.70;;;;;;5109014;27;46505;-67
2022/11/25 01:07:19;;;;;;;5.37;3.20;;;1.40;71.60;;;;;;5107203;27;46415;-66
2022/11/25 01:09:46;;;;;;;5.37;2.90;;;1.40;71.40;;;;;;5105725;27;47342;-69
2022/11/25 01:12:11;;;;;;;5.65;2.90;;;1.50;71.20;;;;;;5106405;27;45944;-67
2022/11/25 01:14:37;;;;;;;6.30;2.90;;;1.50;70.60;;;;;;5107271;27;46403;-66
2022/11/25 01:17:03;;;;;;;4.87;3.23;;;1.60;70.80;;;;;;5106673;27;46320;-68
2022/11/25 01:19:29;;;;;;;6.50;2.80;;;1.60;70.70;;;;;;5140723;27;49075;-66
2022/11/25 01:21:54;;;;;;;6.78;3.17;;;1.70;70.80;;;;;;5105850;27;46391;-65
2022/11/25 01:24:20;;;;;;;6.20;2.80;;;1.70;70.90;;;;;;5107173;27;46445;-67
2022/11/25 01:26:46;;;;;;;4.23;2.80;;;1.70;70.80;;;;;;5109213;27;46492;-67
2022/11/25 01:29:14;;;;;;;6.63;2.57;;;1.70;70.80;;;;;;5109695;27;46367;-68
2022/11/25 01:31:40;;;;;;;3.72;2.45;;;1.80;71.00;;;;;;5108565;27;46474;-67
2022/11/25 01:34:26;;;;;;;3.60;2.40;;;1.70;70.80;;;;;;5104985;27;45928;-67
2022/11/25 01:36:52;;;;;;;8.05;2.80;;;1.70;70.80;;;;;;5104411;27;46545;-68
2022/11/25 01:39:20;;;;;;;5.00;2.50;;;1.80;70.90;;;;;;5109163;27;46429;-67
2022/11/25 01:41:46;;;;;;;3.95;2.25;;;1.70;70.80;;;;;;5105205;27;46484;-67
2022/11/25 01:44:24;;;;;;;3.13;2.05;;;1.70;70.80;;;;;;5108642;27;46198;-66
2022/11/25 01:47:04;;;;;;;4.15;2.30;;;1.70;70.80;;;;;;5105854;27;46643;-68
2022/11/25 01:49:57;;;;;;;5.45;2.35;;;1.80;70.90;;;;;;5140665;27;46204;-68
2022/11/25 01:52:30;;;;;;;4.68;2.08;;;1.80;70.90;;;;;;5110598;27;46420;-66
2022/11/25 01:55:13;;;;;;;2.95;1.90;;;1.80;71.00;;;;;;5106053;27;46393;-66
2022/11/25 01:57:57;;;;;;;5.45;2.22;;;1.80;70.90;;;;;;5105525;27;46699;-66
2022/11/25 02:00:24;;;;;;;4.47;2.10;;;1.80;70.90;;;;;;5107605;27;46481;-67
2022/11/25 02:02:52;;;;;;;3.28;2.25;;;1.80;70.90;;;;;;5105790;27;46663;-66
2022/11/25 02:05:21;;;;;;;4.75;2.72;;;1.80;71.00;;;;;;5106058;27;46471;-68
2022/11/25 02:07:49;;;;;;;3.45;2.30;;;1.80;70.90;;;;;;5108082;27;46626;-67
2022/11/25 02:10:43;;;;;;;2.85;2.05;;;1.70;70.80;;;;;;5106100;27;46555;-66
2022/11/25 02:13:09;;;;;;;4.65;1.98;;;1.90;72.20;;;;;;5102125;27;46537;-67
2022/11/25 02:15:35;;;;;;;4.65;2.30;;;1.80;71.00;;;;;;5108412;27;46416;-68
2022/11/25 02:18:01;;;;;;;3.50;2.50;;;1.80;70.90;;;;;;5107893;27;46456;-66
2022/11/25 02:20:27;;;;;;;4.05;2.42;;;1.90;71.00;;;;;;5105736;27;46562;-67
2022/11/25 02:23:18;;;;;;;4.28;2.20;;;1.90;71.00;;;;;;5107047;27;46573;-69
2022/11/25 02:25:45;;;;;;;5.72;2.42;;;1.90;71.00;;;;;;5104893;27;46143;-68
2022/11/25 02:28:13;;;;;;;3.78;2.33;;;1.90;71.00;;;;;;5105075;27;46427;-68
2022/11/25 02:30:39;;;;;;;3.53;2.35;;;1.90;71.00;;;;;;5107620;27;46373;-68
2022/11/25 02:33:05;;;;;;;4.82;2.67;;;2.10;71.20;;;;;;5106661;27;46383;-67
2022/11/25 02:35:31;;;;;;;3.83;2.30;;;2.00;71.10;;;;;;5105028;27;46465;-68
2022/11/25 02:38:10;;;;;;;6.87;2.47;;;2.00;71.10;;;;;;5109484;27;46534;-67
2022/11/25 02:40:47;;;;;;;4.40;2.03;;;2.00;71.10;;;;;;5102612;27;46735;-67
2022/11/25 02:43:14;;;;;;;3.40;2.17;;;2.00;71.10;;;;;;5106870;27;46444;-67
2022/11/25 02:45:52;;;;;;;3.03;2.40;;;2.00;71.10;;;;;;5105037;27;46590;-67
2022/11/25 02:48:18;;;;;;;3.28;2.05;;;2.00;71.10;;;;;;5107539;27;46518;-66
2022/11/25 02:50:44;;;;;;;4.60;2.63;;;2.00;71.10;;;;;;5106340;27;46357;-67
2022/11/25 02:53:09;;;;;;;4.73;2.50;;;1.90;71.00;;;;;;5107421;27;46376;-66
2022/11/25 02:55:35;;;;;;;6.37;2.30;;;1.90;71.00;;;;;;5108277;27;46478;-68
2022/11/25 02:58:01;;;;;;;5.10;2.73;;;1.90;71.10;;;;;;5108150;27;46541;-68
2022/11/25 03:00:26;;;;;;;5.13;2.97;;;1.90;70.90;;;;;;5110106;27;46572;-68
2022/11/25 03:02:53;;;;;;;5.17;3.23;;;1.90;70.80;;;;;;5108737;27;46438;-68
2022/11/25 03:05:20;;;;;;;7.45;3.90;;;1.90;70.70;;;;;;5107446;27;46533;-66
2022/11/25 03:07:46;;;;;;;6.00;4.30;;;1.90;70.90;;;;;;5108049;27;46486;-68
2022/11/25 03:10:12;;;;;;;11.20;3.97;;;1.90;71.00;;;;;;5105483;27;46356;-65
2022/11/25 03:12:37;;;;;;;8.02;3.83;;;1.80;70.90;;;;;;5106900;27;46432;-66
2022/11/25 03:15:03;;;;;;;8.37;3.60;;;1.80;70.90;;;;;;5110382;27;46452;-66
2022/11/25 03:17:29;;;;;;;14.57;3.97;;;1.80;70.90;;;;;;5107378;27;46517;-68
2022/11/25 03:19:54;;;;;;;5.87;3.63;;;1.90;71.00;;;;;;5108157;27;46498;-67
2022/11/25 03:22:20;;;;;;;7.67;3.67;;;1.90;71.00;;;;;;5109688;27;46507;-67
2022/11/25 03:24:46;;;;;;;7.70;3.90;;;2.00;70.00;;;;;;5105341;27;45905;-67
2022/11/25 03:27:11;;;;;;;8.53;4.23;;;2.00;71.10;;;;;;5101217;27;46519;-67
2022/11/25 03:29:37;;;;;;;7.70;3.53;;;2.00;71.10;;;;;;5105943;27;47422;-66
2022/11/25 03:32:03;;;;;;;6.10;3.70;;;2.00;71.10;;;;;;5102402;27;46414;-66
2022/11/25 03:34:28;;;;;;;6.13;3.70;;;1.90;70.00;;;;;;5106240;27;45867;-66
2022/11/25 03:36:54;;;;;;;8.10;3.67;;;1.90;71.10;;;;;;5103765;27;46685;-66
2022/11/25 03:39:20;;;;;;;6.13;3.40;;;1.90;71.00;;;;;;5103592;27;46953;-67
2022/11/25 03:41:45;;;;;;;5.47;3.23;;;1.80;70.90;;;;;;5138706;27;46432;-67
2022/11/25 03:44:11;;;;;;;5.30;3.00;;;1.70;70.80;;;;;;5101274;27;46472;-68
2022/11/25 03:46:36;;;;;;;4.07;2.60;;;1.80;70.90;;;;;;5111178;27;46328;-67
2022/11/25 03:49:02;;;;;;;5.10;2.87;;;1.70;70.80;;;;;;5106851;27;46317;-68
2022/11/25 03:51:28;;;;;;;5.03;2.70;;;1.70;70.80;;;;;;5107802;27;47283;-66
2022/11/25 03:53:53;;;;;;;6.00;2.90;;;1.70;70.80;;;;;;5104526;27;46488;-66
2022/11/25 03:56:19;;;;;;;5.13;2.90;;;1.60;70.70;;;;;;5107256;27;46545;-66
2022/11/25 03:58:45;;;;;;;9.00;4.10;;;1.60;70.70;;;;;;5111123;27;46316;-68
2022/11/25 04:01:10;;;;;;;7.90;3.60;;;1.60;70.80;;;;;;5112049;27;46433;-66
2022/11/25 04:03:36;;;;;;;5.63;3.60;;;1.60;70.70;;;;;;5107220;27;46502;-66
2022/11/25 04:06:01;;;;;;;8.70;3.47;;;1.60;70.70;;;;;;5103006;27;46411;-66
2022/11/25 04:08:27;;;;;;;5.30;3.10;;;1.60;70.80;;;;;;5108088;27;46500;-67
2022/11/25 04:10:53;;;;;;;5.50;3.30;;;1.70;70.80;;;;;;5109808;27;46117;-66
2022/11/25 04:13:18;;;;;;;5.80;3.83;;;1.70;70.80;;;;;;5109896;27;46538;-67
2022/11/25 04:15:45;;;;;;;4.80;3.70;;;1.80;70.90;;;;;;5107155;27;46628;-68
2022/11/25 04:18:12;;;;;;;9.73;4.15;;;2.00;70.90;;;;;;5104456;27;46420;-66
2022/11/25 04:20:37;;;;;;;8.68;4.20;;;2.00;70.40;;;;;;5105376;27;46446;-67
2022/11/25 04:23:05;;;;;;;5.27;3.60;;;2.10;70.20;;;;;;5107469;27;46310;-69
2022/11/25 04:25:31;;;;;;;7.40;3.83;;;2.10;70.00;;;;;;5107740;27;46828;-68
2022/11/25 04:27:57;;;;;;;4.78;2.92;;;2.20;69.80;;;;;;5107395;27;46727;-66
2022/11/25 04:30:22;;;;;;;4.97;3.20;;;2.20;69.80;;;;;;5109918;27;46517;-66
2022/11/25 04:32:48;;;;;;;4.83;2.93;;;2.20;69.90;;;;;;5110195;27;45955;-68
2022/11/25 04:35:14;;;;;;;6.67;3.17;;;2.30;69.80;;;;;;5110235;27;46651;-68
2022/11/25 04:37:39;;;;;;;6.17;3.03;;;2.30;69.70;;;;;;5108348;27;46444;-68
2022/11/25 04:40:05;;;;;;;4.17;3.13;;;2.40;69.80;;;;;;5106220;27;45987;-66
2022/11/25 04:42:31;;;;;;;4.90;3.20;;;2.40;69.60;;;;;;5108155;27;46395;-66
2022/11/25 04:44:58;;;;;;;6.23;2.60;;;2.40;69.60;;;;;;5108085;27;46579;-67
2022/11/25 04:47:24;;;;;;;5.57;3.00;;;2.50;69.60;;;;;;5106917;27;47979;-67
2022/11/25 04:49:50;;;;;;;6.97;2.80;;;2.50;69.40;;;;;;5103944;27;46315;-67
2022/11/25 04:52:15;;;;;;;7.40;2.93;;;2.50;69.20;;;;;;5105128;27;46428;-66
2022/11/25 04:54:41;;;;;;;133.63;56.27;;;2.80;68.40;;;;;;5106006;27;46077;-66
2022/11/25 04:57:11;;;;;;;33.50;15.50;;;2.80;69.40;;;;;;5108421;27;47352;-68
2022/11/25 04:59:39;;;;;;;42.03;20.38;;;3.20;69.50;;;;;;5106520;27;46452;-68
2022/11/25 05:02:18;;;;;;;58.78;29.40;;;3.50;69.30;;;;;;5107896;27;46399;-68
2022/11/25 05:04:46;;;;;;;8.25;4.28;;;3.80;69.00;;;;;;5106705;27;46704;-68
2022/11/25 05:07:12;;;;;;;37.55;16.42;;;3.60;68.70;;;;;;5107033;27;47808;-66
2022/11/25 05:09:37;;;;;;;58.78;26.67;;;3.50;69.20;;;;;;5109270;27;45865;-66
2022/11/25 05:12:05;;;;;;;13.20;6.80;;;3.60;69.40;;;;;;5110570;27;46387;-67
2022/11/25 05:14:31;;;;;;;21.33;9.60;;;3.50;69.60;;;;;;5107776;27;46411;-67
2022/11/25 05:16:57;;;;;;;15.83;7.30;;;3.30;69.90;;;;;;5106393;27;46468;-68
2022/11/25 05:19:22;;;;;;;16.87;8.40;;;3.20;70.20;;;;;;5108745;27;46465;-68
2022/11/25 05:21:48;;;;;;;22.70;9.60;;;3.20;70.50;;;;;;5105361;27;46451;-66
2022/11/25 05:24:14;;;;;;;20.60;10.47;;;3.00;70.80;;;;;;5107888;27;46755;-67
2022/11/25 05:26:39;;;;;;;7.97;3.10;;;3.00;70.90;;;;;;5110205;27;46582;-67
2022/11/25 05:29:05;;;;;;;5.13;3.00;;;3.00;70.80;;;;;;5109001;27;46479;-68
2022/11/25 05:31:31;;;;;;;3.87;2.30;;;3.00;70.60;;;;;;5110933;27;45964;-66
2022/11/25 05:33:59;;;;;;;6.57;2.70;;;2.90;70.50;;;;;;5102893;27;46407;-66
2022/11/25 05:36:25;;;;;;;7.00;3.00;;;2.90;70.30;;;;;;5102779;27;48326;-66
2022/11/25 05:38:51;;;;;;;5.07;3.00;;;2.90;70.10;;;;;;5110813;27;45890;-67
2022/11/25 05:41:16;;;;;;;8.20;4.57;;;2.90;70.20;;;;;;5104760;27;46536;-66
2022/11/25 05:43:42;;;;;;;5.67;3.13;;;3.00;69.90;;;;;;5110219;27;46526;-66
2022/11/25 05:46:07;;;;;;;9.00;2.20;;;3.10;69.80;;;;;;5104877;27;46667;-69
2022/11/25 05:48:33;;;;;;;4.07;2.37;;;3.10;69.50;;;;;;5111285;27;46483;-66
2022/11/25 05:51:00;;;;;;;7.00;2.83;;;3.20;69.40;;;;;;5106917;27;46841;-67
2022/11/25 05:53:26;;;;;;;6.70;2.50;;;3.30;69.10;;;;;;5104995;27;46722;-66
2022/11/25 05:55:56;;;;;;;12.20;4.70;;;3.30;68.80;;;;;;5104286;27;46397;-67
2022/11/25 05:58:22;;;;;;;4.43;2.50;;;3.40;68.80;;;;;;5106633;27;46474;-68
2022/11/25 06:00:48;;;;;;;5.45;2.47;;;3.40;68.80;;;;;;5105269;27;46448;-67
2022/11/25 06:03:14;;;;;;;8.80;4.70;;;3.40;68.70;;;;;;5136390;27;46569;-66
2022/11/25 06:05:40;;;;;;;4.03;2.00;;;3.40;68.50;;;;;;5107163;27;47486;-67
2022/11/25 06:08:06;;;;;;;3.60;2.00;;;3.40;69.20;;;;;;5105500;27;46413;-65
2022/11/25 06:10:32;;;;;;;4.97;2.20;;;3.40;69.20;;;;;;5109289;27;46442;-67
2022/11/25 06:12:57;;;;;;;2.43;1.60;;;3.40;69.10;;;;;;5106515;27;46223;-67
2022/11/25 06:15:23;;;;;;;4.30;2.17;;;3.40;68.90;;;;;;5101851;27;47298;-68
2022/11/25 06:17:49;;;;;;;3.90;2.20;;;3.30;68.80;;;;;;5105559;27;46324;-67
2022/11/25 06:20:14;;;;;;;8.87;2.40;;;3.40;69.10;;;;;;5106192;27;46433;-65
2022/11/25 06:22:40;;;;;;;4.43;2.43;;;3.40;70.00;;;;;;5107048;27;46595;-66
2022/11/25 06:25:06;;;;;;;6.27;3.43;;;3.40;68.80;;;;;;5098997;27;47997;-66
2022/11/25 06:27:32;;;;;;;5.40;1.52;;;3.40;68.80;;;;;;5104073;27;46642;-66
2022/11/25 06:29:58;;;;;;;4.10;2.10;;;3.30;68.60;;;;;;5105294;27;46462;-69
2022/11/25 06:32:24;;;;;;;3.30;1.90;;;3.40;68.70;;;;;;5106400;27;46905;-65
2022/11/25 06:34:49;;;;;;;10.63;2.73;;;3.40;68.60;;;;;;5105426;27;46452;-67
2022/11/25 06:37:15;;;;;;;3.97;2.07;;;3.40;68.50;;;;;;5105093;27;46456;-67
2022/11/25 06:39:40;;;;;;;2.83;1.57;;;3.40;68.30;;;;;;5107159;27;46450;-67
2022/11/25 06:42:06;;;;;;;3.90;2.03;;;3.50;68.20;;;;;;5105087;27;46340;-66
2022/11/25 06:44:32;;;;;;;16.07;2.60;;;3.50;68.10;;;;;;5102086;27;48394;-66
2022/11/25 06:46:57;;;;;;;3.20;2.17;;;3.50;68.00;;;;;;5105480;27;46338;-66
2022/11/25 06:49:24;;;;;;;7.05;2.50;;;3.50;68.00;;;;;;5139903;27;46465;-68
2022/11/25 06:51:50;;;;;;;5.25;2.80;;;3.50;68.00;;;;;;5106484;27;46332;-68
2022/11/25 06:54:16;;;;;;;4.37;3.00;;;3.60;67.90;;;;;;5107733;27;46572;-68
2022/11/25 06:56:41;;;;;;;7.53;3.63;;;3.50;67.70;;;;;;5106456;27;46248;-67
2022/11/25 06:59:07;;;;;;;6.27;4.40;;;3.60;67.90;;;;;;5107518;27;46513;-66
2022/11/25 07:01:33;;;;;;;7.20;4.40;;;3.70;68.10;;;;;;5109206;27;46962;-66
2022/11/25 07:04:02;;;;;;;12.70;5.10;;;3.70;68.00;;;;;;5105161;27;46435;-66
2022/11/25 07:06:29;;;;;;;8.27;4.30;;;3.80;67.90;;;;;;5110670;27;46678;-67
2022/11/25 07:08:55;;;;;;;4.35;2.45;;;3.90;67.80;;;;;;5100073;27;46892;-66
2022/11/25 07:11:32;;;;;;;6.82;2.50;;;3.90;67.80;;;;;;5107675;27;46458;-66
2022/11/25 07:14:00;;;;;;;5.20;2.57;;;3.90;67.90;;;;;;5106564;27;46485;-66
2022/11/25 07:16:26;;;;;;;5.50;2.70;;;4.00;66.90;;;;;;5105568;27;46420;-66
2022/11/25 07:18:52;;;;;;;4.35;2.60;;;4.10;67.70;;;;;;5101346;27;46532;-65
2022/11/25 07:21:23;;;;;;;5.40;2.57;;;4.10;68.40;;;;;;5106142;27;46569;-66
2022/11/25 07:23:50;;;;;;;4.20;2.50;;;4.10;68.40;;;;;;5099527;27;46688;-67
2022/11/25 07:26:26;;;;;;;5.15;2.70;;;4.20;68.40;;;;;;5101282;27;46527;-66
2022/11/25 07:28:57;;;;;;;4.28;2.60;;;4.30;68.30;;;;;;5101129;27;46782;-67
2022/11/25 07:31:24;;;;;;;3.87;1.90;;;4.40;68.20;;;;;;5103187;27;46536;-67
2022/11/25 07:33:52;;;;;;;5.50;1.92;;;4.40;69.30;;;;;;5136515;27;46406;-66
2022/11/25 07:36:18;;;;;;;4.28;2.10;;;4.40;68.10;;;;;;5132465;27;46421;-67
2022/11/25 07:38:44;;;;;;;4.10;2.20;;;4.50;68.00;;;;;;5106961;27;46494;-67
2022/11/25 07:41:12;;;;;;;4.00;2.13;;;4.50;67.90;;;;;;5138473;27;45925;-68
2022/11/25 07:43:38;;;;;;;4.37;2.13;;;4.40;68.00;;;;;;5109172;27;48867;-68
2022/11/25 07:46:35;;;;;;;3.40;2.30;;;4.50;68.00;;;;;;5104416;27;46076;-69
2022/11/25 07:49:07;;;;;;;4.53;2.55;;;4.50;67.80;;;;;;5108074;27;46317;-69
2022/11/25 07:51:40;;;;;;;6.05;3.40;;;4.60;67.80;;;;;;5107439;27;46325;-68
2022/11/25 07:54:09;;;;;;;5.20;2.40;;;4.60;67.60;;;;;;5137621;27;47905;-69
2022/11/25 07:56:37;;;;;;;5.30;2.28;;;4.50;67.70;;;;;;5107882;27;46430;-68
2022/11/25 07:59:03;;;;;;;6.18;3.28;;;4.60;67.70;;;;;;5110832;27;46380;-67
2022/11/25 08:01:29;;;;;;;4.67;2.60;;;4.60;67.50;;;;;;5104735;27;46664;-68
2022/11/25 08:03:54;;;;;;;10.37;6.03;;;4.70;67.20;;;;;;5105653;27;46588;-67
2022/11/25 08:06:26;;;;;;;5.60;2.40;;;4.80;67.00;;;;;;5105270;27;46553;-68
2022/11/25 08:08:54;;;;;;;5.60;2.20;;;5.00;66.80;;;;;;5106308;27;47308;-68
2022/11/25 08:11:28;;;;;;;3.47;2.20;;;5.00;66.60;;;;;;5108376;27;46427;-66
2022/11/25 08:13:54;;;;;;;8.43;2.70;;;5.00;66.50;;;;;;5108390;27;46527;-66
2022/11/25 08:16:21;;;;;;;4.60;2.97;;;5.00;66.40;;;;;;5105399;27;46450;-67
2022/11/25 08:18:48;;;;;;;4.37;2.40;;;5.00;66.40;;;;;;5109779;27;45990;-68
2022/11/25 08:21:14;;;;;;;5.17;2.40;;;5.10;66.30;;;;;;5109481;27;46474;-66
2022/11/25 08:23:42;;;;;;;7.13;3.10;;;5.20;66.20;;;;;;5105441;27;47289;-66
2022/11/25 08:26:17;;;;;;;4.15;2.78;;;5.40;65.90;;;;;;5109068;27;46428;-67
2022/11/25 08:28:43;;;;;;;247.03;112.87;;;5.50;65.60;;;;;;5141973;27;46464;-67
2022/11/25 08:31:12;;;;;;;12.03;4.30;;;5.70;65.70;;;;;;5108172;27;46454;-68
2022/11/25 08:33:38;;;;;;;5.30;2.93;;;5.90;65.60;;;;;;5104142;27;46424;-67
2022/11/25 08:36:05;;;;;;;8.53;4.47;;;6.30;65.20;;;;;;5136713;27;46331;-67
2022/11/25 08:38:31;;;;;;;21.43;8.27;;;6.50;64.90;;;;;;5107484;27;46545;-68
2022/11/25 08:40:57;;;;;;;11.90;7.77;;;6.70;64.50;;;;;;5107657;27;46616;-67
2022/11/25 08:43:23;;;;;;;10.07;6.57;;;6.80;64.10;;;;;;5135880;27;46666;-67
2022/11/25 08:45:50;;;;;;;8.73;5.63;;;6.90;64.00;;;;;;5106542;27;46555;-64
2022/11/25 08:48:17;;;;;;;7.33;3.57;;;7.00;63.90;;;;;;5107842;27;46090;-67
2022/11/25 08:50:48;;;;;;;5.10;3.50;;;7.20;63.90;;;;;;5107808;27;46423;-67
2022/11/25 08:53:15;;;;;;;11.77;5.13;;;7.30;63.60;;;;;;5111189;27;46630;-67
2022/11/25 08:55:41;;;;;;;5.80;3.30;;;7.50;63.30;;;;;;5102256;27;46528;-67
2022/11/25 08:58:10;;;;;;;5.23;2.30;;;7.70;63.40;;;;;;5110308;27;46085;-65
2022/11/25 09:00:43;;;;;;;6.50;2.77;;;7.70;63.40;;;;;;5108603;27;46649;-66
2022/11/25 09:03:11;;;;;;;2.40;1.50;;;7.90;63.60;;;;;;5110886;27;46871;-67
2022/11/25 09:05:41;;;;;;;5.67;2.10;;;8.00;63.70;;;;;;5108212;27;45817;-67
2022/11/25 09:08:09;;;;;;;4.70;2.30;;;8.00;63.60;;;;;;5104158;27;46367;-68
2022/11/25 09:10:35;;;;;;;3.67;1.57;;;8.00;63.70;;;;;;5106495;27;46878;-67
2022/11/25 09:13:01;;;;;;;8.50;2.10;;;8.00;63.70;;;;;;5115489;27;46767;-68
2022/11/25 09:15:27;;;;;;;3.53;1.53;;;7.90;63.60;;;;;;5110201;27;46597;-69
2022/11/25 09:18:01;;;;;;;3.70;2.13;;;7.90;63.60;;;;;;5107274;27;46361;-68
2022/11/25 09:20:27;;;;;;;2.93;1.87;;;7.90;63.60;;;;;;5142386;27;46128;-70
2022/11/25 09:22:53;;;;;;;11.37;2.33;;;7.90;63.60;;;;;;5110121;27;46978;-71
2022/11/25 09:25:21;;;;;;;22.63;11.10;;;7.90;63.60;;;;;;5108542;27;46794;-68
2022/11/25 09:27:47;;;;;;;29.70;13.07;;;7.90;63.60;;;;;;5109144;27;46974;-67
2022/11/25 09:30:13;;;;;;;11.83;6.03;;;7.90;63.60;;;;;;5105870;27;46851;-67
2022/11/25 09:32:39;;;;;;;4.67;2.37;;;7.90;63.60;;;;;;5105176;27;49051;-69
2022/11/25 09:35:05;;;;;;;3.60;1.77;;;8.00;63.70;;;;;;5108589;27;46793;-68
2022/11/25 09:37:31;;;;;;;3.53;1.83;;;8.00;63.70;;;;;;5105074;27;46223;-67
2022/11/25 09:39:56;;;;;;;3.73;1.90;;;8.00;63.50;;;;;;5099985;27;46472;-67
2022/11/25 09:48:12;;;;;;;3.07;1.70;;;8.00;62.80;;;;;;5103741;27;46470;-70
2022/11/25 09:50:43;;;;;;;5.17;2.00;;;8.00;62.60;;;;;;5103531;27;46341;-67
2022/11/25 09:53:24;;;;;;;8.00;4.80;;;8.10;62.50;;;;;;5104492;27;46437;-70
2022/11/25 09:55:53;;;;;;;4.50;2.30;;;8.10;62.20;;;;;;5106716;27;46477;-69
2022/11/25 09:58:32;;;;;;;2.53;1.30;;;8.10;62.00;;;;;;5102402;27;45956;-67
2022/11/25 10:00:59;;;;;;;341.97;142.70;;;8.20;61.50;;;;;;5099950;27;46620;-67
2022/11/25 10:03:40;;;;;;;13.17;6.03;;;8.30;61.30;;;;;;5101352;27;46684;-71
2022/11/25 10:06:35;;;;;;;3.00;1.67;;;8.40;60.90;;;;;;5101140;27;46829;-70
2022/11/25 10:09:09;;;;;;;1.93;1.10;;;8.40;60.50;;;;;;5098538;27;46405;-69
2022/11/25 10:11:52;;;;;;;1.80;1.17;;;8.40;60.50;;;;;;5103704;27;46501;-69
2022/11/25 10:14:20;;;;;;;2.60;1.30;;;8.50;60.40;;;;;;5103859;27;46868;-70
2022/11/25 10:16:51;;;;;;;4.07;1.40;;;8.50;60.10;;;;;;5104429;27;46724;-69
2022/11/25 10:19:38;;;;;;;4.47;1.60;;;8.60;60.00;;;;;;5103385;27;46475;-68
2022/11/25 10:22:49;;;;;;;3.43;1.50;;;8.70;59.70;;;;;;5104421;27;46503;-69
2022/11/25 10:25:20;;;;;;;3.03;1.67;;;8.80;59.50;;;;;;5038972;28;47205;-69
2022/11/25 10:28:01;;;;;;;3.63;1.27;;;8.80;59.40;;;;;;5106472;27;46833;-70
2022/11/25 10:30:41;;;;;;;4.70;1.67;;;8.90;58.80;;;;;;5104514;27;46757;-70
2022/11/25 10:33:38;;;;;;;4.23;1.50;;;8.90;59.90;;;;;;5104282;27;46344;-68
2022/11/25 10:36:25;;;;;;;2.43;1.20;;;8.90;58.60;;;;;;5100911;27;46579;-68
2022/11/25 10:39:13;;;;;;;2.00;1.10;;;8.90;58.70;;;;;;5105045;27;45869;-70
2022/11/25 10:41:49;;;;;;;4.80;2.30;;;9.00;58.30;;;;;;5103593;27;46454;-68
2022/11/25 10:44:27;;;;;;;4.43;2.33;;;9.10;58.30;;;;;;5100453;27;46452;-67
2022/11/25 10:47:24;;;;;;;5.10;2.43;;;9.20;57.90;;;;;;5106152;27;46530;-69
2022/11/25 10:50:11;;;;;;;9.17;3.80;;;9.40;57.20;;;;;;5103021;27;46783;-68
2022/11/25 10:52:43;;;;;;;5.60;1.83;;;9.80;56.80;;;;;;5122359;27;46498;-69
2022/11/25 10:55:13;;;;;;;4.47;1.20;;;10.20;54.90;;;;;;5105015;27;46434;-67
2022/11/25 10:57:39;;;;;;;7.90;3.33;;;10.50;53.90;;;;;;5105080;27;46681;-67
2022/11/25 11:00:22;;;;;;;6.20;3.00;;;10.90;52.80;;;;;;5105408;27;46538;-69
2022/11/25 11:02:48;;;;;;;4.10;2.37;;;11.10;52.70;;;;;;5087447;27;46455;-68
2022/11/25 11:05:22;;;;;;;6.20;2.47;;;11.30;52.80;;;;;;5100051;27;46517;-67
2022/11/25 11:08:15;;;;;;;11.07;4.77;;;11.50;52.10;;;;;;5103224;27;46864;-67
2022/11/25 11:10:41;;;;;;;4.10;2.00;;;11.50;51.70;;;;;;5104578;27;46541;-69
2022/11/25 11:13:31;;;;;;;4.27;1.80;;;11.20;52.70;;;;;;5101738;27;46494;-68
2022/11/25 11:15:57;;;;;;;3.87;1.53;;;10.90;52.40;;;;;;5099592;27;45936;-69
2022/11/25 11:18:23;;;;;;;6.93;2.90;;;10.60;52.90;;;;;;5102715;27;46480;-70
2022/11/25 11:20:51;;;;;;;3.63;1.70;;;10.50;53.50;;;;;;5110736;27;46516;-68
2022/11/25 11:23:18;;;;;;;10.43;3.80;;;10.50;53.70;;;;;;5107832;27;46462;-71
2022/11/25 11:25:59;;;;;;;4.53;2.30;;;10.50;53.60;;;;;;5108723;27;46458;-69
2022/11/25 11:28:26;;;;;;;4.07;1.73;;;10.60;53.30;;;;;;5109584;27;46495;-68
2022/11/25 11:31:01;;;;;;;4.03;2.33;;;10.60;53.20;;;;;;5110376;27;46525;-68
2022/11/25 11:33:47;;;;;;;4.73;1.80;;;10.60;53.20;;;;;;5111524;27;46630;-69
2022/11/25 11:36:58;;;;;;;4.17;1.73;;;10.50;53.30;;;;;;5052220;27;46581;-69
2022/11/25 11:39:46;;;;;;;4.10;1.53;;;10.60;53.20;;;;;;5103596;27;46919;-68
2022/11/25 11:42:50;;;;;;;91.03;46.83;;;10.60;53.30;;;;;;5103217;27;46446;-69
2022/11/25 11:45:36;;;;;;;5.13;2.10;;;10.60;52.80;;;;;;5104926;27;46380;-67
2022/11/25 11:48:04;;;;;;;8.00;1.47;;;10.70;52.90;;;;;;5109654;27;46412;-67
2022/11/25 11:50:39;;;;;;;5.17;1.70;;;10.60;52.20;;;;;;5104865;27;46468;-68
2022/11/25 11:53:14;;;;;;;3.93;1.20;;;10.60;52.20;;;;;;5105353;27;46724;-68
2022/11/25 11:56:06;;;;;;;6.00;1.83;;;10.80;52.40;;;;;;5105402;27;46565;-66
2022/11/25 11:58:47;;;;;;;4.40;1.47;;;11.10;52.70;;;;;;5107273;27;46860;-66
2022/11/25 12:01:37;;;;;;;4.47;1.50;;;11.50;51.70;;;;;;5103414;27;46907;-68
2022/11/25 12:04:13;;;;;;;4.33;1.30;;;11.60;50.60;;;;;;5102634;27;46731;-67
2022/11/25 12:06:42;;;;;;;5.73;1.70;;;11.70;50.00;;;;;;5105580;27;46626;-66
2022/11/25 12:09:15;;;;;;;5.97;1.63;;;12.00;50.20;;;;;;5103954;27;46497;-66
2022/11/25 12:11:47;;;;;;;10.87;1.43;;;12.40;49.70;;;;;;5104690;27;46871;-67
2022/11/25 12:14:38;;;;;;;5.40;1.80;;;12.70;49.40;;;;;;5108918;27;46172;-67
2022/11/25 12:17:14;;;;;;;9.50;1.60;;;12.90;48.90;;;;;;5103665;27;46409;-67
2022/11/25 12:20:16;;;;;;;4.80;1.67;;;13.20;48.60;;;;;;5105165;27;46576;-69
2022/11/25 12:22:49;;;;;;;4.53;1.33;;;13.40;47.90;;;;;;5098721;27;46604;-67
2022/11/25 12:25:25;;;;;;;19.67;7.67;;;13.30;47.50;;;;;;5104363;27;46564;-69
2022/11/25 12:27:54;;;;;;;9.87;2.53;;;12.90;46.90;;;;;;5106218;27;46263;-69
2022/11/25 12:30:22;;;;;;;5.33;1.97;;;12.80;47.50;;;;;;5106753;27;46418;-67
2022/11/25 12:32:52;;;;;;;6.80;1.80;;;12.70;47.70;;;;;;5104644;27;47140;-68
2022/11/25 12:35:30;;;;;;;6.00;1.70;;;12.70;47.70;;;;;;5102522;27;46742;-67
2022/11/25 12:38:14;;;;;;;6.17;1.50;;;12.60;47.80;;;;;;5106250;27;46625;-70
2022/11/25 12:41:10;;;;;;;6.03;1.53;;;12.60;48.40;;;;;;5104730;27;47408;-68
2022/11/25 12:43:41;;;;;;;7.80;1.80;;;12.50;48.10;;;;;;5107579;27;46937;-67
2022/11/25 12:46:34;;;;;;;7.07;1.67;;;12.20;46.60;;;;;;5086645;27;46786;-67
2022/11/25 12:49:01;;;;;;;7.43;1.73;;;11.80;47.70;;;;;;5103837;27;46782;-65
2022/11/25 12:51:49;;;;;;;3.87;1.70;;;11.60;48.10;;;;;;5105839;27;46654;-66
2022/11/25 12:54:32;;;;;;;4.67;1.90;;;11.40;48.00;;;;;;5100497;27;46333;-68
2022/11/25 12:57:06;;;;;;;4.50;1.40;;;11.30;48.20;;;;;;5103327;27;46444;-68
2022/11/25 12:59:31;;;;;;;9.10;2.10;;;11.40;48.50;;;;;;5107133;27;47309;-68
2022/11/25 13:02:34;;;;;;;4.73;1.73;;;11.50;48.70;;;;;;5108433;27;46286;-69
2022/11/25 13:05:44;;;;;;;6.80;2.60;;;11.50;48.10;;;;;;5091533;27;47538;-67
2022/11/25 13:08:28;;;;;;;4.07;1.17;;;11.60;47.80;;;;;;5107204;27;46738;-67
2022/11/25 13:11:05;;;;;;;5.63;1.60;;;11.60;48.00;;;;;;5105008;27;46724;-66
2022/11/25 13:13:46;;;;;;;5.67;1.57;;;11.70;48.20;;;;;;5105112;27;46667;-67
2022/11/25 13:16:12;;;;;;;4.87;1.30;;;11.60;48.20;;;;;;5104505;27;46485;-67
2022/11/25 13:18:42;;;;;;;5.03;1.80;;;11.50;48.50;;;;;;5107575;27;46487;-69